Time;durP1;ratioP1;P1;durP2;ratioP2;P2;SDS_P1;SDS_P2;PMS_P1;PMS_P2;Temp;Humidity;BMP_temperature;BMP_pressure;BME280_temperature;BME280_humidity;BME280_pressure;Samples;Min_cycle;Max_cycle;Signal;HPM_P1;HPM_P2
2022/01/21 00:02:28;;;;;;;95.97;42.42;;;;;;;-0.59;100.00;101225.13;4899236;29;20060;-72
2022/01/21 00:04:56;;;;;;;112.55;44.03;;;;;;;-0.64;100.00;101232.91;4898827;29;20065;-73
2022/01/21 00:07:24;;;;;;;105.38;45.88;;;;;;;-0.71;100.00;101222.09;4899242;29;20606;-73
2022/01/21 00:09:52;;;;;;;111.13;43.38;;;;;;;-0.78;100.00;101223.84;4899179;29;20408;-73
2022/01/21 00:12:20;;;;;;;104.88;42.25;;;;;;;-0.87;100.00;101215.06;4899041;29;20045;-73
2022/01/21 00:14:48;;;;;;;98.72;40.30;;;;;;;-0.92;100.00;101214.81;4899353;29;20053;-72
2022/01/21 00:17:18;;;;;;;98.97;40.55;;;;;;;-0.97;100.00;101218.03;4899251;29;20052;-73
2022/01/21 00:19:48;;;;;;;102.85;43.70;;;;;;;-0.79;100.00;101213.31;4898588;29;20057;-73
2022/01/21 00:30:36;;;;;;;100.03;45.70;;;;;;;-0.71;100.00;101245.44;4898784;29;20495;-71
2022/01/21 00:33:04;;;;;;;114.32;43.53;;;;;;;-0.53;100.00;101238.84;4897246;29;20049;-71
2022/01/21 00:35:32;;;;;;;118.65;46.17;;;;;;;-0.56;100.00;101237.34;4898804;29;20059;-71
2022/01/21 00:38:00;;;;;;;110.90;44.95;;;;;;;-0.46;100.00;101234.34;4898458;29;20404;-71
2022/01/21 00:40:30;;;;;;;105.72;45.05;;;;;;;-0.53;100.00;101228.06;4897164;29;20060;-71
2022/01/21 00:43:16;;;;;;;115.93;44.97;;;;;;;-0.52;100.00;101227.03;4898745;29;20534;-72
2022/01/21 00:45:44;;;;;;;100.10;43.80;;;;;;;-0.65;100.00;101231.25;4896746;29;20495;-72
2022/01/21 00:48:12;;;;;;;117.97;44.00;;;;;;;-0.81;100.00;101221.56;4898793;29;20052;-71
2022/01/21 00:50:40;;;;;;;111.03;43.20;;;;;;;-0.90;100.00;101223.50;4898244;29;20057;-72
2022/01/21 00:53:08;;;;;;;110.35;44.08;;;;;;;-0.98;100.00;101211.00;4899125;29;20408;-73
2022/01/21 00:55:45;;;;;;;101.65;44.63;;;;;;;-1.03;100.00;101217.97;4903235;29;20064;-73
2022/01/21 00:58:22;;;;;;;110.03;43.65;;;;;;;-0.98;100.00;101219.06;4897569;29;20048;-73
2022/01/21 01:00:50;;;;;;;100.22;42.22;;;;;;;-1.02;100.00;101211.59;4897295;29;20506;-73
2022/01/21 01:03:19;;;;;;;107.35;45.40;;;;;;;-1.12;100.00;101210.00;4898378;29;20053;-73
2022/01/21 01:05:49;;;;;;;112.72;44.33;;;;;;;-1.14;100.00;101216.56;4898587;29;20060;-73
2022/01/21 01:08:18;;;;;;;116.05;45.05;;;;;;;-1.17;100.00;101201.66;4896547;29;20060;-72
2022/01/21 01:21:44;;;;;;;108.63;45.42;;;;;;;-1.21;100.00;101221.88;4898074;29;20052;-71
2022/01/21 01:29:27;;;;;;;107.13;42.58;;;;;;;-1.40;100.00;101221.41;4885748;29;20072;-71
2022/01/21 01:31:56;;;;;;;98.55;42.17;;;;;;;-1.41;100.00;101210.84;4897752;29;20057;-70
2022/01/21 01:34:24;;;;;;;92.63;41.53;;;;;;;-1.40;100.00;101205.31;4883102;29;20056;-73
2022/01/21 01:36:57;;;;;;;104.63;42.13;;;;;;;-1.40;100.00;101201.78;4896870;29;20060;-72
2022/01/21 01:40:11;;;;;;;109.13;43.28;;;;;;;-1.31;100.00;101211.41;4897766;29;20515;-73
2022/01/21 01:50:35;;;;;;;111.70;45.08;;;;;;;-1.33;100.00;101209.94;4896249;29;20060;-73
2022/01/21 01:53:04;;;;;;;102.75;42.00;;;;;;;-1.46;100.00;101216.78;4895848;29;20048;-72
2022/01/21 01:55:34;;;;;;;105.95;43.38;;;;;;;-1.48;100.00;101210.75;4897126;29;20126;-73
2022/01/21 01:58:03;;;;;;;109.22;44.58;;;;;;;-1.56;100.00;101218.91;4897550;29;20400;-73
2022/01/21 02:00:34;;;;;;;114.80;46.47;;;;;;;-1.68;100.00;101213.97;4897586;29;20055;-72
2022/01/21 02:03:06;;;;;;;104.68;42.85;;;;;;;-1.73;100.00;101219.03;4896718;29;20408;-72
2022/01/21 02:05:35;;;;;;;105.10;44.17;;;;;;;-1.72;100.00;101225.25;4897366;29;20056;-73
2022/01/21 02:08:06;;;;;;;106.95;42.97;;;;;;;-1.78;100.00;101213.38;4897238;29;20503;-72
2022/01/21 02:10:36;;;;;;;96.70;41.05;;;;;;;-1.82;100.00;101218.28;4895916;29;20045;-72
2022/01/21 02:13:19;;;;;;;102.50;43.53;;;;;;;-1.80;100.00;101220.78;4896129;29;20496;-72
2022/01/21 02:21:41;;;;;;;104.72;41.75;;;;;;;-1.68;100.00;101223.84;4895916;29;20045;-72
2022/01/21 02:24:23;;;;;;;108.78;45.03;;;;;;;-1.57;100.00;101222.59;4897115;29;20048;-72
2022/01/21 02:26:52;;;;;;;98.95;41.75;;;;;;;-1.64;100.00;101217.97;4880510;29;20392;-72
2022/01/21 02:29:37;;;;;;;110.90;44.20;;;;;;;-1.69;100.00;101220.34;4895806;29;20052;-72
2022/01/21 02:32:06;;;;;;;101.40;39.92;;;;;;;-1.67;100.00;101214.81;4895720;29;20052;-72
2022/01/21 02:34:34;;;;;;;106.75;41.78;;;;;;;-1.67;100.00;101212.13;4895363;29;20052;-72
2022/01/21 02:37:02;;;;;;;101.97;40.67;;;;;;;-1.74;100.00;101214.69;4895707;29;20780;-72
2022/01/21 02:39:31;;;;;;;110.85;42.53;;;;;;;-1.76;100.00;101219.44;4895450;29;20057;-72
2022/01/21 02:41:59;;;;;;;101.28;42.35;;;;;;;-1.76;100.00;101222.94;4895919;29;20067;-72
2022/01/21 02:44:27;;;;;;;95.00;40.40;;;;;;;-1.82;100.00;101214.75;4895380;29;20531;-72
2022/01/21 02:46:58;;;;;;;102.72;43.20;;;;;;;-1.90;100.00;101208.47;4895803;29;20080;-72
2022/01/21 02:49:30;;;;;;;106.47;40.20;;;;;;;-1.91;100.00;101214.84;4895735;29;20526;-72
2022/01/21 02:52:02;;;;;;;98.57;39.72;;;;;;;-1.94;100.00;101215.22;4882668;29;20590;-73
2022/01/21 02:54:34;;;;;;;101.18;40.95;;;;;;;-1.97;100.00;101207.53;4895624;29;20496;-72
2022/01/21 02:57:07;;;;;;;113.05;41.63;;;;;;;-1.99;100.00;101209.56;4895310;29;20803;-72
2022/01/21 02:59:36;;;;;;;106.75;40.10;;;;;;;-2.01;100.00;101205.38;4895346;29;20056;-72
2022/01/21 03:02:04;;;;;;;94.35;38.55;;;;;;;-1.93;100.00;101208.00;4895446;29;20080;-72
2022/01/21 03:07:19;;;;;;;98.50;38.63;;;;;;;-1.82;100.00;101226.34;4884796;29;20061;-72
2022/01/21 03:09:47;;;;;;;101.95;39.90;;;;;;;-1.83;100.00;101223.81;4895332;29;20053;-73
2022/01/21 03:12:14;;;;;;;91.97;38.53;;;;;;;-1.93;100.00;101219.56;4896676;29;20048;-73
2022/01/21 03:14:42;;;;;;;96.80;37.88;;;;;;;-2.01;100.00;101229.53;4898584;29;20048;-73
2022/01/21 03:17:10;;;;;;;96.50;38.50;;;;;;;-2.05;100.00;101223.69;4898556;29;20059;-73
2022/01/21 03:19:38;;;;;;;108.45;40.33;;;;;;;-2.07;100.00;101223.88;4898838;29;20048;-72
2022/01/21 03:22:06;;;;;;;89.50;37.63;;;;;;;-2.05;100.00;101227.19;4900064;29;20057;-73
2022/01/21 03:24:34;;;;;;;98.05;39.67;;;;;;;-2.09;100.00;101241.16;4900147;29;20067;-72
2022/01/21 03:27:02;;;;;;;99.65;37.17;;;;;;;-2.10;100.00;101242.16;4898609;29;20119;-72
2022/01/21 03:29:30;;;;;;;93.68;39.72;;;;;;;-2.16;100.00;101230.28;4898430;29;20408;-73
2022/01/21 03:31:58;;;;;;;107.95;41.08;;;;;;;-2.09;100.00;101225.91;4898364;29;20056;-72
2022/01/21 03:34:27;;;;;;;97.40;40.17;;;;;;;-1.93;100.00;101232.97;4898760;29;20044;-72
2022/01/21 03:36:56;;;;;;;94.97;39.45;;;;;;;-1.74;100.00;101227.28;4898598;29;20052;-73
2022/01/21 03:39:24;;;;;;;98.35;39.92;;;;;;;-1.60;100.00;101228.31;4897512;29;20056;-73
2022/01/21 03:41:51;;;;;;;107.97;41.72;;;;;;;-1.55;100.00;101220.56;4898232;29;20053;-73
2022/01/21 03:44:19;;;;;;;107.10;41.20;;;;;;;-1.78;100.00;101234.84;4899371;29;20060;-72
2022/01/21 03:46:48;;;;;;;91.95;39.65;;;;;;;-1.91;100.00;101233.63;4898410;29;20067;-72
2022/01/21 03:49:16;;;;;;;100.55;39.60;;;;;;;-1.91;100.00;101222.88;4897805;29;20052;-72
2022/01/21 03:51:46;;;;;;;89.47;37.80;;;;;;;-2.04;100.00;101228.84;4898408;29;20041;-72
2022/01/21 03:54:14;;;;;;;97.55;37.53;;;;;;;-2.07;100.00;101234.59;4897920;29;20489;-72
2022/01/21 03:56:41;;;;;;;80.70;35.15;;;;;;;-2.21;100.00;101244.25;4898198;29;20048;-72
2022/01/21 03:59:09;;;;;;;86.38;36.80;;;;;;;-2.29;100.00;101252.34;4899630;29;20056;-72
2022/01/21 04:01:37;;;;;;;82.78;35.30;;;;;;;-2.30;100.00;101251.50;4896285;29;20048;-72
2022/01/21 04:04:06;;;;;;;85.22;35.47;;;;;;;-2.39;100.00;101246.38;4898175;29;20045;-72
2022/01/21 04:06:36;;;;;;;91.75;33.75;;;;;;;-2.45;100.00;101256.78;4882612;29;20527;-72
2022/01/21 04:09:05;;;;;;;77.72;33.13;;;;;;;-2.49;100.00;101258.16;4898181;29;20045;-72
2022/01/21 04:11:33;;;;;;;86.03;34.00;;;;;;;-2.51;100.00;101259.34;4898017;29;20045;-72
2022/01/21 04:14:01;;;;;;;85.40;34.10;;;;;;;-2.49;100.00;101252.78;4899203;29;20044;-72
2022/01/21 04:16:29;;;;;;;90.30;36.50;;;;;;;-2.58;100.00;101256.53;4898064;29;20052;-72
2022/01/21 04:18:57;;;;;;;85.72;34.70;;;;;;;-2.57;100.00;101267.09;4897800;29;20107;-72
2022/01/21 04:21:25;;;;;;;77.68;35.08;;;;;;;-2.56;100.00;101270.59;4898154;29;20060;-72
2022/01/21 04:23:54;;;;;;;90.35;36.67;;;;;;;-2.58;100.00;101269.94;4911504;29;20377;-72
2022/01/21 04:26:31;;;;;;;88.07;35.03;;;;;;;-2.53;100.00;101267.56;4897161;29;20056;-72
2022/01/21 04:29:07;;;;;;;89.85;35.95;;;;;;;-2.60;100.00;101267.44;4896951;29;20048;-72
2022/01/21 04:31:43;;;;;;;90.03;37.75;;;;;;;-2.51;100.00;101270.91;4883029;29;20041;-72
2022/01/21 04:34:11;;;;;;;90.15;36.03;;;;;;;-2.45;100.00;101286.28;4890167;29;20049;-72
2022/01/21 04:36:39;;;;;;;88.28;35.03;;;;;;;-2.81;100.00;101294.81;4896920;29;20049;-72
2022/01/21 04:39:14;;;;;;;93.20;32.83;;;;;;;-2.79;100.00;101292.78;4897463;29;20045;-72
2022/01/21 04:47:16;;;;;;;93.07;34.42;;;;;;;-2.65;100.00;101288.56;4889118;29;20048;-72
2022/01/21 04:47:19;;;;;;;97.30;34.15;;;;;;;-2.52;100.00;101290.69;4897256;29;20073;-72
2022/01/21 04:49:50;;;;;;;89.75;35.78;;;;;;;-2.53;100.00;101293.53;4897092;29;20074;-72
2022/01/21 04:52:22;;;;;;;87.90;32.50;;;;;;;-2.57;100.00;101293.06;4896974;29;20052;-72
2022/01/21 04:54:57;;;;;;;81.93;33.63;;;;;;;-2.68;100.00;101296.13;4896145;29;20053;-72
2022/01/21 04:57:29;;;;;;;89.97;35.38;;;;;;;-2.71;100.00;101300.81;4896309;29;20048;-71
2022/01/21 04:59:57;;;;;;;74.47;32.10;;;;;;;-2.78;100.00;101297.16;4895174;29;20167;-72
2022/01/21 05:02:28;;;;;;;78.38;31.20;;;;;;;-2.74;100.00;101306.50;4897688;29;20503;-72
2022/01/21 05:04:57;;;;;;;87.40;33.80;;;;;;;-2.75;100.00;101306.69;4895433;29;20055;-72
2022/01/21 05:07:26;;;;;;;89.10;33.80;;;;;;;-2.75;100.00;101309.34;4895872;29;20377;-72
2022/01/21 05:09:54;;;;;;;101.25;33.17;;;;;;;-2.73;100.00;101321.56;4898287;29;20059;-72
2022/01/21 05:12:25;;;;;;;75.45;32.88;;;;;;;-2.56;100.00;101329.56;4894550;29;20049;-72
2022/01/21 05:17:29;;;;;;;84.15;34.83;;;;;;;-2.77;100.00;101322.09;4890164;29;20472;-72
2022/01/21 05:19:57;;;;;;;97.70;34.08;;;;;;;-2.75;100.00;101310.22;4896278;29;20049;-72
2022/01/21 05:22:44;;;;;;;89.88;32.95;;;;;;;-2.65;100.00;101322.56;4896446;29;20048;-72
2022/01/21 05:25:17;;;;;;;97.50;34.03;;;;;;;-2.58;100.00;101321.69;4894992;29;20057;-72
2022/01/21 05:27:54;;;;;;;89.38;32.75;;;;;;;-2.70;100.00;101321.25;4896534;29;20060;-72
2022/01/21 05:30:22;;;;;;;81.28;32.88;;;;;;;-2.72;100.00;101327.78;4894519;29;20522;-72
2022/01/21 05:33:23;;;;;;;92.45;33.55;;;;;;;-2.78;100.00;101326.66;4895706;29;20416;-72
2022/01/21 05:36:09;;;;;;;80.63;32.15;;;;;;;-2.79;100.00;101332.16;4896735;29;20052;-72
2022/01/21 05:39:00;;;;;;;98.57;35.10;;;;;;;-2.73;100.00;101337.66;4896222;29;20063;-72
2022/01/21 05:41:50;;;;;;;87.90;32.35;;;;;;;-2.77;100.00;101341.72;4894863;29;20499;-72
2022/01/21 05:47:30;;;;;;;81.60;31.30;;;;;;;-2.87;100.00;101359.81;4894976;29;20052;-72
2022/01/21 05:50:24;;;;;;;74.15;31.55;;;;;;;-2.79;100.00;101358.97;4888271;29;20057;-72
2022/01/21 05:53:09;;;;;;;75.35;32.72;;;;;;;-2.75;100.00;101352.22;4887408;29;20057;-72
2022/01/21 05:56:02;;;;;;;78.05;30.65;;;;;;;-2.79;100.00;101369.69;4896270;29;20060;-72
2022/01/21 05:58:30;;;;;;;67.85;32.40;;;;;;;-2.85;100.00;101371.19;4897086;29;20052;-72
2022/01/21 06:01:00;;;;;;;87.82;29.23;;;;;;;-2.94;100.00;101377.56;4895491;29;20495;-72
2022/01/21 06:03:31;;;;;;;73.78;32.78;;;;;;;-2.92;100.00;101383.59;4896824;29;20055;-72
2022/01/21 06:06:00;;;;;;;83.55;33.58;;;;;;;-2.62;100.00;101399.94;4896957;29;20427;-71
2022/01/21 06:08:28;;;;;;;74.05;32.65;;;;;;;-2.66;100.00;101401.28;4895364;29;20083;-72
2022/01/21 06:10:55;;;;;;;75.03;32.33;;;;;;;-2.62;100.00;101397.25;4896984;29;20075;-72
2022/01/21 06:13:23;;;;;;;99.70;35.13;;;;;;;-2.76;100.00;101399.63;4896314;29;20169;-72
2022/01/21 06:15:51;;;;;;;78.82;31.85;;;;;;;-2.88;100.00;101409.03;4896077;29;20758;-72
2022/01/21 06:18:20;;;;;;;81.03;31.55;;;;;;;-2.97;100.00;101409.03;4896616;29;20072;-72
2022/01/21 06:20:48;;;;;;;80.28;33.70;;;;;;;-2.90;100.00;101411.03;4896970;29;20052;-72
2022/01/21 06:23:16;;;;;;;75.60;34.17;;;;;;;-2.90;100.00;101413.72;4897210;29;20048;-71
2022/01/21 06:25:44;;;;;;;77.05;35.33;;;;;;;-2.86;100.00;101420.41;4896542;29;20056;-72
2022/01/21 06:28:12;;;;;;;74.65;33.97;;;;;;;-2.81;100.00;101420.75;4896793;29;20063;-72
2022/01/21 06:30:40;;;;;;;85.22;34.25;;;;;;;-2.84;100.00;101443.34;4896449;29;20060;-72
2022/01/21 06:33:09;;;;;;;79.25;34.38;;;;;;;-2.86;100.00;101436.47;4897338;29;20067;-72
2022/01/21 06:35:37;;;;;;;66.18;31.42;;;;;;;-2.92;100.00;101439.84;4896845;29;20067;-72
2022/01/21 06:38:05;;;;;;;85.47;34.35;;;;;;;-2.88;100.00;101441.19;4895840;29;20381;-72
2022/01/21 06:40:33;;;;;;;68.97;32.58;;;;;;;-2.73;100.00;101446.69;4896805;29;20571;-72
2022/01/21 06:43:06;;;;;;;86.07;33.10;;;;;;;-2.77;100.00;101453.38;4896526;29;20060;-72
2022/01/21 06:45:35;;;;;;;64.10;32.97;;;;;;;-2.79;100.00;101464.25;4896669;29;20426;-73
2022/01/21 06:48:03;;;;;;;98.75;34.53;;;;;;;-2.75;100.00;101473.66;4897190;29;20044;-72
2022/01/21 06:50:32;;;;;;;83.10;34.13;;;;;;;-2.85;100.00;101470.31;4899527;29;20059;-72
2022/01/21 06:53:00;;;;;;;103.65;33.47;;;;;;;-2.88;100.00;101478.69;4900328;29;20385;-72
2022/01/21 06:55:28;;;;;;;78.20;33.28;;;;;;;-2.88;100.00;101478.69;4900125;29;20049;-73
2022/01/21 06:57:57;;;;;;;89.55;34.47;;;;;;;-2.80;100.00;101484.03;4900693;29;20056;-72
2022/01/21 07:00:25;;;;;;;70.05;33.03;;;;;;;-2.58;100.00;101495.06;4900081;29;20044;-74
2022/01/21 07:02:53;;;;;;;84.55;36.53;;;;;;;-2.60;100.00;101503.28;4900157;29;20048;-73
2022/01/21 07:05:25;;;;;;;81.82;33.72;;;;;;;-2.75;100.00;101500.44;4898779;29;20404;-72
2022/01/21 07:07:55;;;;;;;73.40;31.80;;;;;;;-2.88;100.00;101505.47;4898570;29;20063;-74
2022/01/21 07:10:24;;;;;;;72.65;33.97;;;;;;;-2.80;100.00;101508.16;4900255;29;20707;-73
2022/01/21 07:12:52;;;;;;;78.47;33.55;;;;;;;-2.78;100.00;101516.03;4900093;29;20048;-74
2022/01/21 07:15:20;;;;;;;60.85;29.33;;;;;;;-2.50;100.00;101523.72;4900378;29;20052;-74
2022/01/21 07:17:52;;;;;;;70.50;33.40;;;;;;;-2.43;100.00;101519.34;4900084;29;20052;-74
2022/01/21 07:20:20;;;;;;;80.60;33.75;;;;;;;-2.70;100.00;101527.56;4900349;29;20060;-75
2022/01/21 07:22:49;;;;;;;83.70;32.28;;;;;;;-2.91;100.00;101535.25;4899878;29;20053;-73
2022/01/21 07:25:17;;;;;;;66.70;32.00;;;;;;;-3.04;100.00;101550.00;4896275;29;20052;-73
2022/01/21 07:27:50;;;;;;;72.90;32.17;;;;;;;-3.04;100.00;101554.53;4900034;29;20052;-74
2022/01/21 07:30:18;;;;;;;75.63;32.22;;;;;;;-3.11;100.00;101571.25;4899793;29;20056;-74
2022/01/21 07:32:46;;;;;;;77.45;32.03;;;;;;;-3.08;100.00;101559.34;4890680;29;20052;-73
2022/01/21 07:35:15;;;;;;;68.75;31.15;;;;;;;-3.07;100.00;101565.56;4898681;29;20041;-73
2022/01/21 07:38:03;;;;;;;59.65;30.75;;;;;;;-3.09;100.00;101572.94;4899348;29;20060;-73
2022/01/21 07:40:31;;;;;;;62.28;30.73;;;;;;;-3.12;100.00;101571.41;4896493;29;20055;-73
2022/01/21 07:42:59;;;;;;;72.10;33.03;;;;;;;-3.03;100.00;101572.25;4897971;29;20522;-74
2022/01/21 07:45:27;;;;;;;66.00;32.25;;;;;;;-2.90;100.00;101580.66;4895886;29;20054;-73
2022/01/21 07:47:55;;;;;;;76.50;36.42;;;;;;;-2.62;100.00;101590.22;4897368;29;20044;-73
2022/01/21 07:50:23;;;;;;;64.07;32.10;;;;;;;-2.60;100.00;101597.09;4897751;29;20064;-73
2022/01/21 07:52:50;;;;;;;58.90;29.83;;;;;;;-2.65;100.00;101603.97;4898039;29;20415;-72
2022/01/21 07:55:18;;;;;;;62.65;31.90;;;;;;;-2.55;100.00;101617.19;4896048;29;20044;-71
2022/01/21 07:57:46;;;;;;;65.32;32.78;;;;;;;-2.39;100.00;101611.84;4885422;29;20496;-72
2022/01/21 08:00:15;;;;;;;70.55;30.92;;;;;;;-2.45;100.00;101607.97;4894490;29;20044;-72
2022/01/21 08:02:43;;;;;;;71.20;30.08;;;;;;;-2.63;100.00;101618.03;4897038;29;20377;-71
2022/01/21 08:05:12;;;;;;;63.45;30.95;;;;;;;-2.57;100.00;101630.75;4896984;29;20052;-72
2022/01/21 08:07:40;;;;;;;64.97;29.92;;;;;;;-2.40;100.00;101636.13;4896351;29;20056;-72
2022/01/21 08:10:08;;;;;;;75.55;35.35;;;;;;;-2.45;100.00;101637.47;4897375;29;20492;-73
2022/01/21 08:12:36;;;;;;;69.70;34.00;;;;;;;-2.32;100.00;101634.28;4892018;29;20500;-72
2022/01/21 08:15:04;;;;;;;75.32;34.47;;;;;;;-2.19;100.00;101647.16;4897533;29;20071;-73
2022/01/21 08:17:32;;;;;;;75.00;34.22;;;;;;;-2.11;100.00;101645.50;4897832;29;20056;-72
2022/01/21 08:20:00;;;;;;;73.00;31.52;;;;;;;-2.18;100.00;101659.59;4897514;29;20057;-73
2022/01/21 08:22:28;;;;;;;76.32;34.20;;;;;;;-1.94;100.00;101663.28;4897250;29;20045;-72
2022/01/21 08:24:56;;;;;;;67.13;32.70;;;;;;;-1.95;100.00;101664.25;4897205;29;20447;-73
2022/01/21 08:27:24;;;;;;;73.75;34.30;;;;;;;-1.64;100.00;101668.91;4896867;29;20048;-73
2022/01/21 08:29:52;;;;;;;74.00;30.65;;;;;;;-1.55;100.00;101666.19;4896949;29;20090;-72
2022/01/21 08:32:20;;;;;;;76.90;33.10;;;;;;;-1.74;100.00;101670.94;4897284;29;20750;-72
2022/01/21 08:34:49;;;;;;;77.35;32.63;;;;;;;-1.63;100.00;101675.97;4896981;29;20040;-73
2022/01/21 08:37:18;;;;;;;75.18;33.60;;;;;;;-1.58;100.00;101671.91;4895142;29;20052;-74
2022/01/21 08:39:45;;;;;;;86.10;31.35;;;;;;;-1.66;100.00;101687.03;4892936;29;20048;-73
2022/01/21 08:42:13;;;;;;;66.22;32.15;;;;;;;-1.57;100.00;101684.34;4898290;29;20059;-73
2022/01/21 08:44:41;;;;;;;64.65;30.63;;;;;;;-1.48;100.00;101683.28;4896682;29;20061;-73
2022/01/21 08:47:10;;;;;;;69.40;33.25;;;;;;;-1.35;100.00;101688.94;4894868;29;20041;-73
2022/01/21 08:49:40;;;;;;;71.13;32.80;;;;;;;-1.16;100.00;101686.03;4897410;29;20516;-73
2022/01/21 08:52:18;;;;;;;67.13;32.47;;;;;;;-0.96;100.00;101694.53;4892688;29;20056;-73
2022/01/21 08:54:49;;;;;;;68.40;30.85;;;;;;;-1.14;100.00;101694.75;4897371;29;20055;-73
2022/01/21 08:57:19;;;;;;;67.22;30.83;;;;;;;-0.78;100.00;101702.31;4896194;29;20071;-72
2022/01/21 08:59:49;;;;;;;65.05;32.10;;;;;;;-0.98;100.00;101704.63;4897309;29;20061;-73
2022/01/21 09:02:18;;;;;;;76.32;34.30;;;;;;;-0.71;100.00;101710.50;4897348;29;20052;-73
2022/01/21 09:04:46;;;;;;;72.63;34.95;;;;;;;-0.67;100.00;101725.28;4897660;29;20072;-74
2022/01/21 09:07:19;;;;;;;75.65;36.05;;;;;;;-0.51;100.00;101721.66;4894732;29;20041;-73
2022/01/21 09:09:47;;;;;;;75.55;33.85;;;;;;;-0.17;100.00;101728.50;4897278;29;20060;-73
2022/01/21 09:12:15;;;;;;;74.70;34.20;;;;;;;0.07;100.00;101731.16;4896577;29;20489;-73
2022/01/21 09:14:43;;;;;;;67.28;33.67;;;;;;;0.18;100.00;101746.03;4897218;29;20049;-72
2022/01/21 09:17:11;;;;;;;67.43;33.38;;;;;;;0.11;100.00;101751.34;4897193;29;20063;-72
2022/01/21 09:19:39;;;;;;;73.10;34.38;;;;;;;0.06;100.00;101759.09;4896849;29;20063;-74
2022/01/21 09:22:07;;;;;;;65.75;31.13;;;;;;;0.11;100.00;101762.09;4897068;29;20061;-73
2022/01/21 09:24:36;;;;;;;61.28;31.30;;;;;;;0.19;100.00;101770.09;4896831;29;20044;-73
2022/01/21 09:27:05;;;;;;;64.40;30.65;;;;;;;0.15;100.00;101765.25;4896561;29;20043;-74
2022/01/21 09:29:34;;;;;;;58.13;29.50;;;;;;;0.04;100.00;101761.16;4889645;29;20516;-74
2022/01/21 09:32:04;;;;;;;65.35;30.65;;;;;;;0.02;100.00;101765.84;4893291;29;20060;-73
2022/01/21 09:34:32;;;;;;;70.75;31.00;;;;;;;-0.02;100.00;101766.22;4896187;29;20040;-74
2022/01/21 09:37:01;;;;;;;58.95;29.60;;;;;;;0.11;100.00;101760.22;4896306;29;20052;-76
2022/01/21 09:39:30;;;;;;;66.90;32.65;;;;;;;0.38;100.00;101763.38;4896076;29;20048;-74
2022/01/21 09:42:01;;;;;;;72.63;34.53;;;;;;;0.58;100.00;101778.19;4895922;29;20056;-74
2022/01/21 09:44:31;;;;;;;74.05;32.50;;;;;;;0.56;100.00;101769.44;4894782;29;20056;-74
2022/01/21 09:47:03;;;;;;;74.63;34.85;;;;;;;0.93;100.00;101767.72;4897356;29;20404;-75
2022/01/21 09:49:32;;;;;;;63.33;31.15;;;;;;;1.27;100.00;101768.16;4897520;29;20511;-75
2022/01/21 09:52:03;;;;;;;69.63;31.50;;;;;;;1.13;100.00;101764.44;4884585;29;20061;-75
2022/01/21 09:54:45;;;;;;;58.40;29.85;;;;;;;1.10;100.00;101770.19;4897420;29;20057;-73
2022/01/21 09:57:23;;;;;;;57.45;30.13;;;;;;;1.34;100.00;101780.69;4897306;29;20053;-75
2022/01/21 09:59:52;;;;;;;63.90;31.25;;;;;;;1.48;100.00;101780.84;4897220;29;20053;-74
2022/01/21 10:02:27;;;;;;;63.75;32.38;;;;;;;1.33;100.00;101786.28;4897328;29;20052;-74
2022/01/21 10:04:57;;;;;;;70.75;32.10;;;;;;;1.64;100.00;101784.34;4897100;29;20053;-74
2022/01/21 10:07:26;;;;;;;68.25;30.92;;;;;;;1.49;100.00;101790.63;4895139;29;20057;-74
2022/01/21 10:09:54;;;;;;;62.03;32.60;;;;;;;1.56;100.00;101796.94;4896879;29;20061;-73
2022/01/21 10:12:23;;;;;;;73.07;35.20;;;;;;;1.57;100.00;101781.59;4897290;29;20052;-73
2022/01/21 10:14:51;;;;;;;71.95;34.45;;;;;;;1.85;100.00;101781.69;4897044;29;20060;-74
2022/01/21 10:17:56;;;;;;;82.65;36.95;;;;;;;1.46;100.00;101778.34;4896691;29;20507;-73
2022/01/21 10:21:02;;;;;;;91.57;42.13;;;;;;;1.70;100.00;101780.88;4896197;29;20044;-73
2022/01/21 10:23:33;;;;;;;96.25;43.13;;;;;;;1.91;100.00;101781.94;4890087;29;20053;-74
2022/01/21 10:26:11;;;;;;;105.78;46.15;;;;;;;1.64;100.00;101776.25;4892990;29;20511;-74
2022/01/21 10:28:42;;;;;;;101.05;44.63;;;;;;;1.80;100.00;101784.09;4910265;29;20060;-74
2022/01/21 10:31:14;;;;;;;102.25;46.78;;;;;;;1.81;100.00;101780.38;4895145;29;20064;-74
2022/01/21 10:33:46;;;;;;;99.60;45.05;;;;;;;1.72;100.00;101765.34;4895220;29;20051;-74
2022/01/21 10:36:28;;;;;;;91.15;43.47;;;;;;;1.99;100.00;101771.00;4896436;29;20053;-73
2022/01/21 10:39:10;;;;;;;95.22;41.50;;;;;;;1.76;100.00;101769.31;4892203;29;20060;-74
2022/01/21 10:41:44;;;;;;;86.75;39.90;;;;;;;1.95;100.00;101780.53;4908220;29;20508;-73
2022/01/21 10:44:15;;;;;;;73.00;35.30;;;;;;;2.04;100.00;101779.38;4895317;29;20064;-74
2022/01/21 10:46:59;;;;;;;74.78;36.60;;;;;;;2.01;100.00;101768.97;4893840;29;20495;-73
2022/01/21 10:49:27;;;;;;;74.35;36.90;;;;;;;2.33;100.00;101768.59;4894773;29;20060;-73
2022/01/21 10:51:55;;;;;;;75.80;36.80;;;;;;;2.57;100.00;101767.34;4893573;29;20066;-73
2022/01/21 10:54:28;;;;;;;81.35;35.13;;;;;;;2.49;100.00;101767.50;4894857;29;20068;-72
2022/01/21 10:57:07;;;;;;;81.53;39.28;;;;;;;2.36;100.00;101771.78;4894962;29;20048;-73
2022/01/21 10:59:58;;;;;;;80.65;36.83;;;;;;;2.89;100.00;101781.25;4893180;29;20060;-74
2022/01/21 11:02:33;;;;;;;86.13;39.45;;;;;;;3.38;100.00;101775.91;4894977;29;20416;-73
2022/01/21 11:05:10;;;;;;;89.90;38.60;;;;;;;3.38;100.00;101762.38;4895209;29;20063;-74
2022/01/21 11:07:57;;;;;;;85.68;35.80;;;;;;;3.28;100.00;101760.03;4893160;29;20041;-73
2022/01/21 11:10:51;;;;;;;92.90;37.00;;;;;;;3.45;100.00;101760.53;4908492;29;20056;-73
2022/01/21 11:13:19;;;;;;;94.82;37.33;;;;;;;3.47;100.00;101763.03;4891996;29;20048;-73
2022/01/21 11:16:05;;;;;;;82.15;36.65;;;;;;;3.79;100.00;101773.31;4894655;29;20403;-72
2022/01/21 11:18:57;;;;;;;81.70;38.65;;;;;;;3.81;100.00;101761.25;4892465;29;20797;-73
2022/01/21 11:21:56;;;;;;;90.78;40.85;;;;;;;3.60;100.00;101762.22;4893262;29;20103;-74
2022/01/21 11:24:26;;;;;;;96.10;44.08;;;;;;;4.11;100.00;101751.91;4904958;29;20052;-74
2022/01/21 11:27:15;;;;;;;96.75;43.33;;;;;;;4.18;100.00;101750.03;4892795;29;20055;-73
2022/01/21 11:29:46;;;;;;;96.68;44.60;;;;;;;4.15;100.00;101759.41;4893744;29;20065;-73
2022/01/21 11:32:15;;;;;;;100.95;45.45;;;;;;;4.14;100.00;101746.06;4895700;29;20500;-74
2022/01/21 11:34:43;;;;;;;101.25;44.83;;;;;;;4.00;100.00;101746.06;4895313;29;20045;-73
2022/01/21 11:37:12;;;;;;;106.72;45.05;;;;;;;3.93;100.00;101737.09;4899087;29;20067;-73
2022/01/21 11:39:41;;;;;;;107.03;48.78;;;;;;;4.09;100.00;101740.44;4899363;29;20055;-73
2022/01/21 11:42:08;;;;;;;113.10;49.67;;;;;;;4.20;100.00;101730.88;4899003;29;20057;-74
2022/01/21 11:44:41;;;;;;;109.97;48.05;;;;;;;4.23;100.00;101712.31;4899017;29;20052;-74
2022/01/21 11:49:43;;;;;;;89.20;41.90;;;;;;;4.68;100.00;101721.63;4890691;29;20060;-74
2022/01/21 11:52:18;;;;;;;93.22;41.63;;;;;;;4.94;100.00;101722.63;4891462;29;20048;-73
2022/01/21 11:54:48;;;;;;;89.85;41.80;;;;;;;5.09;100.00;101709.59;4888411;29;20061;-73
2022/01/21 11:57:27;;;;;;;94.28;42.95;;;;;;;5.21;99.15;101717.91;4898926;29;20052;-73
2022/01/21 12:00:04;;;;;;;93.43;42.80;;;;;;;5.59;98.25;101710.84;4898709;29;20060;-73
2022/01/21 12:02:36;;;;;;;88.90;41.38;;;;;;;5.65;95.07;101712.69;4898622;29;20063;-73
2022/01/21 12:05:07;;;;;;;104.10;44.83;;;;;;;5.48;97.25;101711.53;4898781;29;20480;-73
2022/01/21 12:07:44;;;;;;;96.15;44.33;;;;;;;5.66;97.34;101705.34;4898744;29;20052;-73
2022/01/21 12:10:25;;;;;;;87.25;40.88;;;;;;;5.71;97.89;101713.66;4898618;29;20044;-74
2022/01/21 12:12:56;;;;;;;86.18;39.75;;;;;;;5.97;93.28;101711.00;4898505;29;20040;-73
2022/01/21 12:15:51;;;;;;;80.80;39.85;;;;;;;5.89;95.93;101712.94;4893906;29;20051;-74